createdAt,value
2023-03-17T00:00:41.727Z,6.62
2023-03-17T00:01:41.740Z,6.63
2023-03-17T00:02:41.754Z,6.63
2023-03-17T00:03:41.781Z,6.59
2023-03-17T00:04:41.689Z,6.51
2023-03-17T00:05:41.676Z,6.44
2023-03-17T00:06:41.668Z,6.42
2023-03-17T00:07:41.669Z,6.44
2023-03-17T00:08:41.635Z,6.48
2023-03-17T00:09:41.624Z,6.46
2023-03-17T00:10:41.618Z,6.44
2023-03-17T00:11:41.608Z,6.39
2023-03-17T00:12:41.621Z,6.39
2023-03-17T00:13:41.586Z,6.37
2023-03-17T00:14:41.568Z,6.37
2023-03-17T00:15:41.604Z,6.34
2023-03-17T00:16:41.554Z,6.31
2023-03-17T00:17:41.535Z,6.29
2023-03-17T00:18:41.524Z,6.30
2023-03-17T00:19:41.512Z,6.27
2023-03-17T00:20:41.502Z,6.31
2023-03-17T00:21:41.498Z,6.33
2023-03-17T00:22:41.482Z,6.30
2023-03-17T00:23:41.483Z,6.27
2023-03-17T00:24:43.461Z,6.24
2023-03-17T00:25:41.457Z,6.19
2023-03-17T00:26:41.434Z,6.16
2023-03-17T00:27:41.423Z,6.13
2023-03-17T00:28:41.452Z,6.13
2023-03-17T00:29:41.408Z,6.18
2023-03-17T00:30:41.387Z,6.24
2023-03-17T00:31:41.434Z,6.26
2023-03-17T00:32:41.383Z,6.26
2023-03-17T00:33:41.355Z,6.24
2023-03-17T00:34:41.356Z,6.23
2023-03-17T00:35:41.363Z,6.21
2023-03-17T00:36:41.323Z,6.19
2023-03-17T00:37:41.324Z,6.18
2023-03-17T00:38:41.299Z,6.18
2023-03-17T00:39:41.294Z,6.18
2023-03-17T00:40:41.277Z,6.18
2023-03-17T00:41:41.264Z,6.18
2023-03-17T00:42:41.252Z,6.18
2023-03-17T00:43:41.239Z,6.15
2023-03-17T00:44:41.254Z,6.13
2023-03-17T00:45:41.226Z,6.16
2023-03-17T00:46:41.410Z,6.12
2023-03-17T00:47:41.200Z,6.11
2023-03-17T00:48:41.192Z,6.11
2023-03-17T00:49:41.171Z,6.09
2023-03-17T00:50:41.179Z,6.15
2023-03-17T00:51:41.151Z,6.13
2023-03-17T00:52:41.142Z,6.15
2023-03-17T00:53:41.141Z,6.13
2023-03-17T00:54:41.116Z,6.13
2023-03-17T00:55:41.104Z,6.11
2023-03-17T00:56:41.094Z,6.13
2023-03-17T00:57:41.081Z,6.15
2023-03-17T00:58:41.088Z,6.13
2023-03-17T00:59:41.086Z,6.09
2023-03-17T01:00:41.126Z,6.12
2023-03-17T01:01:41.100Z,6.11
2023-03-17T01:02:41.034Z,6.11
2023-03-17T01:03:41.019Z,6.11
2023-03-17T01:04:41.042Z,6.11
2023-03-17T01:05:40.991Z,6.09
2023-03-17T01:06:40.981Z,6.05
2023-03-17T01:07:40.968Z,6.05
2023-03-17T01:08:40.978Z,6.06
2023-03-17T01:09:40.957Z,6.08
2023-03-17T01:10:40.943Z,6.03
2023-03-17T01:11:40.926Z,5.98
2023-03-17T01:12:40.906Z,5.95
2023-03-17T01:13:40.904Z,5.95
2023-03-17T01:14:40.892Z,5.95
2023-03-17T01:15:40.876Z,5.93
2023-03-17T01:16:41.045Z,5.95
2023-03-17T01:17:40.849Z,5.90
2023-03-17T01:18:40.892Z,5.87
2023-03-17T01:19:40.828Z,5.84
2023-03-17T01:20:40.817Z,5.82
2023-03-17T01:21:40.859Z,5.87
2023-03-17T01:22:40.791Z,5.87
2023-03-17T01:23:40.785Z,5.91
2023-03-17T01:24:40.775Z,5.93
2023-03-17T01:25:40.759Z,5.95
2023-03-17T01:26:40.769Z,6.00
2023-03-17T01:27:40.739Z,5.98
2023-03-17T01:28:40.729Z,5.98
2023-03-17T01:29:40.721Z,5.94
2023-03-17T01:30:40.701Z,5.93
2023-03-17T01:31:40.731Z,5.93
2023-03-17T01:32:40.779Z,5.90
2023-03-17T01:33:40.674Z,5.93
2023-03-17T01:34:40.668Z,5.91
2023-03-17T01:35:40.663Z,5.90
2023-03-17T01:36:40.638Z,5.90
2023-03-17T01:37:40.628Z,5.85
2023-03-17T01:38:40.631Z,5.82
2023-03-17T01:39:40.605Z,5.80
2023-03-17T01:40:40.598Z,5.85
2023-03-17T01:41:40.576Z,5.82
2023-03-17T01:42:40.573Z,5.79
2023-03-17T01:43:40.555Z,5.79
2023-03-17T01:44:40.547Z,5.79
2023-03-17T01:45:40.601Z,5.85
2023-03-17T01:46:40.521Z,5.87
2023-03-17T01:47:40.519Z,5.90
2023-03-17T01:48:40.528Z,5.91
2023-03-17T01:49:40.485Z,5.91
2023-03-17T01:50:40.477Z,5.91
2023-03-17T01:51:40.462Z,5.87
2023-03-17T01:52:40.461Z,5.84
2023-03-17T01:53:40.441Z,5.84
2023-03-17T01:54:40.448Z,5.77
2023-03-17T01:55:40.417Z,5.72
2023-03-17T01:56:40.406Z,5.70
2023-03-17T01:57:40.392Z,5.72
2023-03-17T01:58:40.382Z,5.73
2023-03-17T01:59:40.370Z,5.70
2023-03-17T02:00:40.428Z,5.69
2023-03-17T02:01:40.348Z,5.72
2023-03-17T02:02:40.336Z,5.70
2023-03-17T02:03:40.329Z,5.73
2023-03-17T02:04:40.532Z,5.76
2023-03-17T02:05:40.302Z,5.79
2023-03-17T02:06:55.078Z,5.84
2023-03-17T02:07:40.278Z,5.84
2023-03-17T02:08:40.268Z,5.76
2023-03-17T02:09:40.256Z,5.73
2023-03-17T02:10:40.246Z,5.75
2023-03-17T02:11:40.238Z,5.75
2023-03-17T02:12:40.225Z,5.69
2023-03-17T02:13:40.216Z,5.69
2023-03-17T02:14:40.201Z,5.67
2023-03-17T02:15:40.188Z,5.66
2023-03-17T02:16:40.235Z,5.65
2023-03-17T02:17:40.205Z,5.65
2023-03-17T02:18:40.153Z,5.65
2023-03-17T02:19:40.155Z,5.62
2023-03-17T02:20:40.171Z,5.59
2023-03-17T02:21:40.124Z,5.59
2023-03-17T02:22:40.107Z,5.59
2023-03-17T02:23:40.095Z,5.57
2023-03-17T02:24:40.085Z,5.57
2023-03-17T02:25:40.071Z,5.57
2023-03-17T02:26:40.060Z,5.59
2023-03-17T02:27:40.053Z,5.57
2023-03-17T02:28:40.036Z,5.59
2023-03-17T02:29:40.041Z,5.58
2023-03-17T02:30:40.111Z,5.52
2023-03-17T02:31:40.011Z,5.50
2023-03-17T02:32:40.187Z,5.52
2023-03-17T02:33:39.981Z,5.58
2023-03-17T02:34:39.971Z,5.55
2023-03-17T02:35:40.000Z,5.57
2023-03-17T02:36:40.034Z,5.54
2023-03-17T02:37:39.941Z,5.58
2023-03-17T02:38:39.934Z,5.54
2023-03-17T02:39:39.920Z,5.57
2023-03-17T02:40:39.911Z,5.55
2023-03-17T02:41:39.904Z,5.57
2023-03-17T02:42:39.880Z,5.54
2023-03-17T02:43:39.871Z,5.49
2023-03-17T02:44:39.872Z,5.47
2023-03-17T02:45:39.853Z,5.52
2023-03-17T02:46:39.841Z,5.55
2023-03-17T02:47:39.832Z,5.59
2023-03-17T02:48:39.823Z,5.65
2023-03-17T02:49:39.803Z,5.69
2023-03-17T02:50:39.794Z,5.69
2023-03-17T02:51:39.784Z,5.66
2023-03-17T02:52:39.798Z,5.65
2023-03-17T02:53:39.772Z,5.61
2023-03-17T02:54:39.762Z,5.58
2023-03-17T02:55:39.742Z,5.55
2023-03-17T02:56:39.732Z,5.57
2023-03-17T02:57:39.713Z,5.57
2023-03-17T02:58:39.718Z,5.58
2023-03-17T02:59:39.692Z,5.59
2023-03-17T03:00:39.677Z,5.59
2023-03-17T03:01:39.773Z,5.61
2023-03-17T03:02:39.706Z,5.58
2023-03-17T03:03:39.669Z,5.54
2023-03-17T03:04:39.633Z,5.54
2023-03-17T03:05:39.622Z,5.57
2023-03-17T03:06:39.611Z,5.57
2023-03-17T03:07:39.597Z,5.55
2023-03-17T03:08:39.634Z,5.57
2023-03-17T03:09:39.579Z,5.58
2023-03-17T03:10:39.568Z,5.61
2023-03-17T03:11:39.576Z,5.59
2023-03-17T03:12:39.550Z,5.57
2023-03-17T03:13:39.529Z,5.58
2023-03-17T03:14:39.525Z,5.59
2023-03-17T03:15:39.525Z,5.59
2023-03-17T03:16:39.494Z,5.58
2023-03-17T03:17:39.486Z,5.54
2023-03-17T03:18:39.472Z,5.52
2023-03-17T03:19:39.471Z,5.52
2023-03-17T03:20:39.452Z,5.46
2023-03-17T03:21:39.440Z,5.46
2023-03-17T03:22:41.428Z,5.43
2023-03-17T03:23:39.415Z,5.43
2023-03-17T03:24:39.428Z,5.43
2023-03-17T03:25:39.401Z,5.46
2023-03-17T03:26:39.385Z,5.47
2023-03-17T03:27:39.375Z,5.50
2023-03-17T03:28:39.358Z,5.57
2023-03-17T03:29:39.377Z,5.59
2023-03-17T03:30:39.344Z,5.59
2023-03-17T03:31:39.324Z,5.65
2023-03-17T03:32:39.357Z,5.65
2023-03-17T03:33:39.306Z,5.65
2023-03-17T03:34:39.303Z,5.66
2023-03-17T03:35:39.295Z,5.61
2023-03-17T03:36:39.269Z,5.58
2023-03-17T03:37:39.256Z,5.58
2023-03-17T03:38:39.246Z,5.55
2023-03-17T03:39:39.242Z,5.57
2023-03-17T03:40:39.245Z,5.58
2023-03-17T03:41:39.237Z,5.55
2023-03-17T03:42:39.206Z,5.57
2023-03-17T03:43:39.191Z,5.54
2023-03-17T03:44:39.178Z,5.58
2023-03-17T03:45:39.176Z,5.59
2023-03-17T03:46:39.203Z,5.61
2023-03-17T03:47:39.139Z,5.59
2023-03-17T03:48:39.128Z,5.58
2023-03-17T03:49:39.119Z,5.58
2023-03-17T03:50:39.105Z,5.59
2023-03-17T03:51:39.117Z,5.59
2023-03-17T03:52:39.088Z,5.59
2023-03-17T03:53:39.073Z,5.55
2023-03-17T03:54:39.057Z,5.55
2023-03-17T03:55:39.046Z,5.52
2023-03-17T03:56:39.059Z,5.52
2023-03-17T03:57:39.026Z,5.57
2023-03-17T03:58:39.017Z,5.61
2023-03-17T03:59:39.010Z,5.61
2023-03-17T04:00:40.996Z,5.61
2023-03-17T04:01:38.980Z,5.57
2023-03-17T04:02:39.018Z,5.55
2023-03-17T04:03:38.952Z,5.54
2023-03-17T04:04:39.006Z,5.52
2023-03-17T04:05:38.932Z,5.46
2023-03-17T04:06:38.918Z,5.46
2023-03-17T04:07:38.910Z,5.46
2023-03-17T04:08:38.897Z,5.49
2023-03-17T04:09:38.892Z,5.54
2023-03-17T04:10:38.873Z,5.57
2023-03-17T04:11:38.870Z,5.58
2023-03-17T04:12:38.890Z,5.59
2023-03-17T04:13:38.840Z,5.59
2023-03-17T04:14:38.827Z,5.61
2023-03-17T04:15:38.825Z,5.57
2023-03-17T04:16:39.047Z,5.54
2023-03-17T04:17:38.796Z,5.57
2023-03-17T04:18:38.907Z,5.58
2023-03-17T04:19:38.780Z,5.59
2023-03-17T04:20:38.766Z,5.58
2023-03-17T04:21:38.753Z,5.59
2023-03-17T04:22:38.737Z,5.61
2023-03-17T04:23:38.724Z,5.58
2023-03-17T04:24:38.716Z,5.52
2023-03-17T04:25:38.708Z,5.47
2023-03-17T04:26:38.692Z,5.49
2023-03-17T04:27:38.683Z,5.47
2023-03-17T04:28:38.697Z,5.46
2023-03-17T04:29:38.662Z,5.47
2023-03-17T04:30:38.656Z,5.49
2023-03-17T04:31:38.642Z,5.47
2023-03-17T04:32:38.711Z,5.46
2023-03-17T04:33:38.631Z,5.43
2023-03-17T04:34:38.608Z,5.40
2023-03-17T04:35:38.632Z,5.39
2023-03-17T04:36:38.586Z,5.40
2023-03-17T04:37:38.567Z,5.47
2023-03-17T04:38:38.555Z,5.46
2023-03-17T04:39:38.543Z,5.39
2023-03-17T04:40:38.530Z,5.38
2023-03-17T04:41:38.524Z,5.38
2023-03-17T04:42:38.513Z,5.40
2023-03-17T04:43:38.496Z,5.42
2023-03-17T04:44:38.543Z,5.42
2023-03-17T04:45:38.638Z,5.43
2023-03-17T04:46:38.460Z,5.43
2023-03-17T04:47:38.452Z,5.43
2023-03-17T04:48:38.441Z,5.42
2023-03-17T04:49:38.427Z,5.42
2023-03-17T04:50:38.415Z,5.42
2023-03-17T04:51:38.408Z,5.40
2023-03-17T04:52:38.397Z,5.46
2023-03-17T04:53:38.388Z,5.43
2023-03-17T04:54:38.375Z,5.42
2023-03-17T04:55:38.362Z,5.43
2023-03-17T04:56:38.359Z,5.43
2023-03-17T04:57:38.337Z,5.43
2023-03-17T04:58:38.352Z,5.47
2023-03-17T04:59:38.336Z,5.43
2023-03-17T05:00:38.330Z,5.43
2023-03-17T05:01:39.280Z,5.39
2023-03-17T05:02:38.375Z,5.36
2023-03-17T05:03:38.271Z,5.38
2023-03-17T05:04:38.255Z,5.42
2023-03-17T05:05:38.244Z,5.43
2023-03-17T05:06:38.251Z,5.39
2023-03-17T05:07:38.225Z,5.36
2023-03-17T05:08:38.221Z,5.32
2023-03-17T05:09:38.208Z,5.36
2023-03-17T05:10:38.192Z,5.38
2023-03-17T05:11:38.176Z,5.40
2023-03-17T05:12:38.177Z,5.43
2023-03-17T05:13:38.158Z,5.46
2023-03-17T05:14:38.167Z,5.50
2023-03-17T05:15:40.172Z,5.47
2023-03-17T05:16:38.166Z,5.49
2023-03-17T05:17:40.121Z,5.52
2023-03-17T05:18:38.108Z,5.54
2023-03-17T05:19:38.088Z,5.55
2023-03-17T05:20:38.080Z,5.54
2023-03-17T05:21:38.063Z,5.50
2023-03-17T05:22:38.052Z,5.50
2023-03-17T05:23:38.044Z,5.50
2023-03-17T05:24:38.036Z,5.50
2023-03-17T05:25:38.018Z,5.50
2023-03-17T05:26:38.014Z,5.52
2023-03-17T05:27:37.996Z,5.47
2023-03-17T05:28:37.982Z,5.46
2023-03-17T05:29:37.978Z,5.49
2023-03-17T05:30:38.055Z,5.47
2023-03-17T05:31:37.989Z,5.47
2023-03-17T05:32:38.052Z,5.42
2023-03-17T05:33:37.928Z,5.39
2023-03-17T05:34:37.915Z,5.39
2023-03-17T05:35:37.934Z,5.42
2023-03-17T05:36:37.912Z,5.43
2023-03-17T05:37:37.896Z,5.46
2023-03-17T05:38:37.869Z,5.49
2023-03-17T05:39:37.860Z,5.54
2023-03-17T05:40:37.843Z,5.55
2023-03-17T05:41:37.834Z,5.54
2023-03-17T05:42:37.821Z,5.49
2023-03-17T05:43:37.814Z,5.49
2023-03-17T05:44:37.798Z,5.52
2023-03-17T05:45:37.804Z,5.57
2023-03-17T05:46:37.782Z,5.58
2023-03-17T05:47:37.795Z,5.61
2023-03-17T05:48:37.757Z,5.66
2023-03-17T05:49:37.742Z,5.66
2023-03-17T05:50:37.737Z,5.62
2023-03-17T05:51:37.729Z,5.57
2023-03-17T05:52:37.708Z,5.54
2023-03-17T05:53:37.705Z,5.54
2023-03-17T05:54:37.692Z,5.57
2023-03-17T05:55:37.711Z,5.61
2023-03-17T05:56:37.667Z,5.62
2023-03-17T05:57:37.699Z,5.65
2023-03-17T05:58:37.646Z,5.59
2023-03-17T05:59:37.637Z,5.57
2023-03-17T06:00:37.623Z,5.55
2023-03-17T06:01:37.614Z,5.58
2023-03-17T06:02:37.630Z,5.62
2023-03-17T06:03:37.647Z,5.65
2023-03-17T06:04:37.573Z,5.67
2023-03-17T06:05:37.561Z,5.66
2023-03-17T06:06:37.551Z,5.66
2023-03-17T06:07:50.810Z,5.67
2023-03-17T06:08:37.528Z,5.72
2023-03-17T06:09:37.519Z,5.70
2023-03-17T06:10:37.508Z,5.75
2023-03-17T06:11:37.499Z,5.79
2023-03-17T06:12:37.486Z,5.76
2023-03-17T06:13:37.491Z,5.73
2023-03-17T06:14:37.495Z,5.76
2023-03-17T06:15:37.487Z,5.76
2023-03-17T06:16:37.461Z,5.79
2023-03-17T06:17:37.425Z,5.79
2023-03-17T06:18:37.419Z,5.82
2023-03-17T06:19:37.459Z,5.84
2023-03-17T06:20:37.399Z,5.87
2023-03-17T06:21:37.381Z,5.88
2023-03-17T06:22:37.394Z,5.87
2023-03-17T06:23:37.360Z,5.88
2023-03-17T06:24:37.350Z,5.85
2023-03-17T06:25:37.344Z,5.85
2023-03-17T06:26:37.329Z,5.82
2023-03-17T06:27:37.324Z,5.79
2023-03-17T06:28:37.323Z,5.82
2023-03-17T06:29:37.293Z,5.84
2023-03-17T06:30:40.423Z,5.84
2023-03-17T06:31:37.327Z,5.87
2023-03-17T06:32:37.309Z,5.90
2023-03-17T06:33:37.253Z,5.94
2023-03-17T06:34:37.233Z,5.95
2023-03-17T06:35:37.285Z,6.00
2023-03-17T06:36:38.615Z,6.05
2023-03-17T06:37:37.196Z,6.09
2023-03-17T06:38:37.191Z,6.12
2023-03-17T06:39:37.182Z,6.09
2023-03-17T06:40:37.204Z,6.11
2023-03-17T06:41:37.160Z,6.09
2023-03-17T06:42:37.142Z,6.08
2023-03-17T06:43:37.138Z,6.13
2023-03-17T06:44:37.168Z,6.16
2023-03-17T06:45:37.108Z,6.19
2023-03-17T06:46:37.115Z,6.19
2023-03-17T06:47:37.087Z,6.24
2023-03-17T06:48:37.078Z,6.27
2023-03-17T06:49:37.068Z,6.29
2023-03-17T06:50:37.055Z,6.31
2023-03-17T06:51:37.071Z,6.33
2023-03-17T06:52:37.052Z,6.37
2023-03-17T06:53:37.025Z,6.42
2023-03-17T06:54:37.008Z,6.46
2023-03-17T06:55:36.992Z,6.46
2023-03-17T06:56:36.980Z,6.52
2023-03-17T06:57:36.971Z,6.55
2023-03-17T06:58:36.963Z,6.59
2023-03-17T06:59:36.953Z,6.63
2023-03-17T07:00:36.934Z,6.67
2023-03-17T07:01:36.948Z,6.73
2023-03-17T07:02:36.917Z,6.78
2023-03-17T07:03:38.451Z,6.81
2023-03-17T07:04:36.947Z,6.81
2023-03-17T07:05:36.885Z,6.82
2023-03-17T07:06:36.873Z,6.81
2023-03-17T07:07:36.884Z,6.87
2023-03-17T07:08:36.842Z,6.99
2023-03-17T07:09:36.833Z,7.04
2023-03-17T07:10:36.840Z,7.07
2023-03-17T07:11:36.811Z,7.15
2023-03-17T07:12:36.825Z,7.18
2023-03-17T07:13:36.802Z,7.16
2023-03-17T07:14:36.817Z,7.19
2023-03-17T07:15:36.764Z,7.19
2023-03-17T07:16:36.870Z,7.21
2023-03-17T07:17:36.768Z,7.15
2023-03-17T07:18:36.734Z,7.15
2023-03-17T07:19:36.725Z,7.15
2023-03-17T07:20:36.719Z,7.18
2023-03-17T07:21:36.699Z,7.22
2023-03-17T07:22:36.707Z,7.25
2023-03-17T07:23:36.698Z,7.21
2023-03-17T07:24:36.694Z,7.29
2023-03-17T07:25:36.655Z,7.40
2023-03-17T07:26:36.639Z,7.49
2023-03-17T07:27:36.629Z,7.55
2023-03-17T07:28:36.630Z,7.83
2023-03-17T07:29:36.624Z,8.16
2023-03-17T07:30:36.602Z,8.52
2023-03-17T07:31:36.721Z,8.83
2023-03-17T07:32:36.637Z,9.07
2023-03-17T07:33:36.557Z,9.32
2023-03-17T07:34:36.606Z,9.61
2023-03-17T07:35:36.616Z,9.77
2023-03-17T07:36:36.527Z,9.93
2023-03-17T07:37:36.553Z,9.94
2023-03-17T07:38:36.507Z,9.87
2023-03-17T07:39:36.515Z,9.74
2023-03-17T07:40:36.483Z,9.76
2023-03-17T07:41:36.473Z,9.68
2023-03-17T07:42:36.458Z,9.77
2023-03-17T07:43:36.450Z,9.91
2023-03-17T07:44:36.434Z,10.01
2023-03-17T07:45:36.607Z,9.76
2023-03-17T07:46:36.423Z,9.36
2023-03-17T07:47:36.440Z,8.98
2023-03-17T07:48:36.396Z,8.65
2023-03-17T07:49:41.655Z,8.37
2023-03-17T07:50:36.381Z,8.04
2023-03-17T07:51:36.358Z,7.98
2023-03-17T07:52:36.388Z,7.91
2023-03-17T07:53:36.334Z,7.93
2023-03-17T07:54:36.371Z,7.95
2023-03-17T07:55:36.340Z,8.04
2023-03-17T07:56:36.326Z,8.30
2023-03-17T07:57:36.348Z,8.71
2023-03-17T07:58:36.281Z,9.14
2023-03-17T07:59:36.295Z,9.65
2023-03-17T08:00:36.592Z,10.03
2023-03-17T08:01:36.312Z,10.23
2023-03-17T08:02:36.366Z,10.67
2023-03-17T08:03:36.327Z,11.12
2023-03-17T08:04:36.218Z,11.54
2023-03-17T08:05:36.214Z,11.61
2023-03-17T08:06:36.212Z,11.87
2023-03-17T08:07:36.198Z,12.06
2023-03-17T08:08:36.172Z,12.24
2023-03-17T08:09:36.158Z,11.96
2023-03-17T08:10:36.338Z,11.70
2023-03-17T08:11:36.179Z,11.85
2023-03-17T08:12:36.125Z,11.89
2023-03-17T08:13:36.117Z,12.07
2023-03-17T08:14:36.148Z,12.80
2023-03-17T08:15:36.100Z,13.48
2023-03-17T08:16:36.173Z,13.89
2023-03-17T08:17:36.116Z,13.92
2023-03-17T08:18:36.094Z,13.87
2023-03-17T08:19:36.039Z,13.71
2023-03-17T08:20:36.033Z,13.46
2023-03-17T08:21:36.053Z,13.06
2023-03-17T08:22:36.009Z,12.84
2023-03-17T08:23:36.032Z,12.73
2023-03-17T08:24:36.012Z,12.61
2023-03-17T08:25:35.981Z,12.28
2023-03-17T08:26:35.971Z,12.16
2023-03-17T08:27:35.975Z,11.82
2023-03-17T08:28:35.973Z,11.92
2023-03-17T08:29:36.002Z,12.09
2023-03-17T08:30:36.366Z,12.25
2023-03-17T08:31:36.011Z,12.35
2023-03-17T08:32:36.029Z,12.31
2023-03-17T08:33:35.925Z,12.13
2023-03-17T08:34:35.869Z,11.92
2023-03-17T08:35:35.940Z,11.91
2023-03-17T08:36:35.853Z,11.62
2023-03-17T08:37:35.837Z,11.55
2023-03-17T08:38:35.826Z,11.19
2023-03-17T08:39:35.816Z,11.18
2023-03-17T08:40:35.807Z,11.31
2023-03-17T08:41:35.797Z,11.58
2023-03-17T08:42:35.785Z,11.73
2023-03-17T08:43:35.812Z,11.88
2023-03-17T08:44:35.760Z,11.52
2023-03-17T08:45:35.758Z,11.30
2023-03-17T08:46:35.830Z,11.18
2023-03-17T08:47:35.725Z,11.18
2023-03-17T08:48:35.719Z,11.07
2023-03-17T08:49:35.705Z,10.74
2023-03-17T08:50:35.691Z,10.45
2023-03-17T08:51:35.714Z,10.41
2023-03-17T08:52:35.669Z,10.38
2023-03-17T08:53:35.665Z,10.34
2023-03-17T08:54:35.647Z,10.48
2023-03-17T08:55:35.641Z,10.77
2023-03-17T08:56:35.631Z,10.96
2023-03-17T08:57:35.613Z,11.14
2023-03-17T08:58:35.613Z,11.00
2023-03-17T08:59:35.670Z,11.11
2023-03-17T09:00:35.582Z,11.11
2023-03-17T09:01:35.615Z,10.93
2023-03-17T09:02:35.572Z,11.03
2023-03-17T09:03:35.567Z,11.03
2023-03-17T09:04:35.549Z,11.18
2023-03-17T09:05:38.195Z,11.12
2023-03-17T09:06:35.523Z,11.18
2023-03-17T09:07:35.560Z,11.00
2023-03-17T09:08:35.513Z,10.97
2023-03-17T09:09:35.486Z,10.94
2023-03-17T09:10:35.475Z,11.11
2023-03-17T09:11:35.470Z,11.31
2023-03-17T09:12:35.446Z,11.33
2023-03-17T09:13:35.444Z,11.48
2023-03-17T09:14:43.397Z,11.67
2023-03-17T09:15:35.471Z,11.62
2023-03-17T09:16:35.516Z,11.46
2023-03-17T09:17:35.396Z,11.40
2023-03-17T09:18:35.384Z,11.55
2023-03-17T09:19:35.371Z,11.64
2023-03-17T09:20:35.358Z,11.76
2023-03-17T09:21:35.347Z,11.70
2023-03-17T09:22:35.330Z,11.62
2023-03-17T09:23:35.321Z,11.54
2023-03-17T09:24:35.323Z,11.62
2023-03-17T09:25:35.297Z,11.54
2023-03-17T09:26:35.294Z,11.61
2023-03-17T09:27:35.276Z,11.64
2023-03-17T09:28:35.267Z,11.66
2023-03-17T09:29:35.255Z,11.70
2023-03-17T09:30:35.248Z,11.84
2023-03-17T09:31:35.297Z,12.03
2023-03-17T09:32:35.240Z,12.24
2023-03-17T09:33:35.219Z,12.35
2023-03-17T09:34:35.208Z,12.57
2023-03-17T09:35:35.228Z,12.88
2023-03-17T09:36:35.176Z,12.99
2023-03-17T09:37:35.165Z,12.93
2023-03-17T09:38:35.145Z,13.16
2023-03-17T09:39:35.137Z,13.45
2023-03-17T09:40:35.570Z,13.67
2023-03-17T09:41:35.113Z,13.96
2023-03-17T09:42:35.113Z,14.09
2023-03-17T09:43:35.105Z,13.92
2023-03-17T09:44:35.083Z,14.08
2023-03-17T09:45:35.102Z,14.23
2023-03-17T09:46:35.157Z,14.48
2023-03-17T09:47:35.071Z,14.22
2023-03-17T09:48:35.100Z,14.23
2023-03-17T09:49:35.054Z,14.61
2023-03-17T09:50:35.071Z,14.66
2023-03-17T09:51:35.029Z,14.53
2023-03-17T09:52:34.991Z,15.03
2023-03-17T09:53:35.036Z,15.63
2023-03-17T09:54:34.974Z,16.14
2023-03-17T09:55:34.961Z,16.25
2023-03-17T09:56:34.944Z,15.95
2023-03-17T09:57:34.939Z,16.14
2023-03-17T09:58:34.931Z,16.51
2023-03-17T09:59:34.923Z,16.95
2023-03-17T10:00:34.909Z,17.30
2023-03-17T10:01:34.898Z,17.39
2023-03-17T10:02:34.876Z,17.34
2023-03-17T10:03:34.895Z,17.25
2023-03-17T10:04:34.855Z,17.49
2023-03-17T10:05:35.563Z,17.53
2023-03-17T10:06:34.927Z,17.54
2023-03-17T10:07:34.818Z,17.68
2023-03-17T10:08:34.817Z,17.86
2023-03-17T10:09:34.802Z,17.67
2023-03-17T10:10:34.784Z,17.19
2023-03-17T10:11:34.774Z,17.27
2023-03-17T10:12:34.761Z,17.41
2023-03-17T10:13:34.753Z,17.70
2023-03-17T10:14:34.753Z,17.59
2023-03-17T10:15:34.732Z,17.04
2023-03-17T10:16:34.782Z,16.72
2023-03-17T10:17:34.712Z,17.06
2023-03-17T10:18:34.704Z,17.67
2023-03-17T10:19:34.711Z,18.05
2023-03-17T10:20:34.678Z,17.96
2023-03-17T10:21:34.666Z,17.86
2023-03-17T10:22:34.660Z,18.05
2023-03-17T10:23:34.645Z,17.82
2023-03-17T10:24:34.627Z,18.14
2023-03-17T10:25:34.944Z,17.89
2023-03-17T10:26:34.615Z,16.56
2023-03-17T10:27:34.594Z,16.03
2023-03-17T10:28:34.593Z,15.65
2023-03-17T10:29:34.573Z,15.84
2023-03-17T10:30:34.590Z,16.46
2023-03-17T10:31:34.672Z,17.06
2023-03-17T10:32:34.636Z,17.32
2023-03-17T10:33:34.531Z,17.38
2023-03-17T10:34:36.656Z,17.09
2023-03-17T10:35:34.584Z,16.57
2023-03-17T10:36:34.498Z,16.53
2023-03-17T10:37:34.479Z,16.57
2023-03-17T10:38:34.477Z,16.64
2023-03-17T10:39:34.455Z,16.99
2023-03-17T10:40:34.510Z,16.68
2023-03-17T10:41:34.430Z,16.35
2023-03-17T10:42:34.426Z,16.53
2023-03-17T10:43:34.413Z,16.28
2023-03-17T10:44:34.400Z,15.62
2023-03-17T10:45:34.397Z,15.62
2023-03-17T10:46:34.474Z,15.90
2023-03-17T10:47:34.371Z,16.54
2023-03-17T10:48:34.354Z,16.73
2023-03-17T10:49:34.344Z,16.48
2023-03-17T10:50:34.746Z,16.27
2023-03-17T10:51:34.369Z,16.13
2023-03-17T10:52:34.310Z,15.78
2023-03-17T10:53:34.298Z,15.62
2023-03-17T10:54:34.286Z,15.65
2023-03-17T10:55:34.282Z,15.68
2023-03-17T10:56:34.258Z,16.06
2023-03-17T10:57:34.248Z,16.56
2023-03-17T10:58:34.238Z,17.07
2023-03-17T10:59:34.341Z,17.31
2023-03-17T11:00:34.282Z,16.90
2023-03-17T11:01:34.241Z,16.79
2023-03-17T11:02:34.195Z,16.69
2023-03-17T11:03:34.274Z,16.79
2023-03-17T11:04:34.182Z,16.82
2023-03-17T11:05:34.199Z,17.28
2023-03-17T11:06:34.165Z,17.65
2023-03-17T11:07:34.164Z,17.37
2023-03-17T11:08:34.128Z,17.35
2023-03-17T11:09:34.115Z,17.56
2023-03-17T11:10:34.119Z,17.85
2023-03-17T11:11:34.100Z,17.92
2023-03-17T11:12:34.092Z,17.80
2023-03-17T11:13:34.074Z,17.68
2023-03-17T11:14:34.061Z,17.93
2023-03-17T11:15:34.065Z,17.74
2023-03-17T11:16:34.104Z,17.67
2023-03-17T11:17:34.031Z,17.65
2023-03-17T11:18:34.025Z,17.78
2023-03-17T11:19:34.004Z,17.45
2023-03-17T11:20:33.998Z,17.64
2023-03-17T11:21:33.987Z,17.54
2023-03-17T11:22:33.971Z,16.99
2023-03-17T11:23:33.994Z,16.57
2023-03-17T11:24:33.948Z,16.42
2023-03-17T11:25:33.935Z,16.14
2023-03-17T11:26:33.938Z,16.13
2023-03-17T11:27:33.913Z,16.05
2023-03-17T11:28:33.903Z,15.96
2023-03-17T11:29:33.893Z,15.84
2023-03-17T11:30:33.878Z,15.99
2023-03-17T11:31:33.932Z,15.73
2023-03-17T11:32:33.948Z,15.98
2023-03-17T11:33:33.846Z,16.02
2023-03-17T11:34:33.841Z,16.05
2023-03-17T11:35:33.840Z,16.31
2023-03-17T11:36:33.822Z,16.53
2023-03-17T11:37:33.810Z,16.53
2023-03-17T11:38:33.801Z,16.57
2023-03-17T11:39:33.808Z,16.97
2023-03-17T11:40:33.771Z,17.25
2023-03-17T11:41:33.785Z,17.13
2023-03-17T11:42:33.746Z,16.91
2023-03-17T11:43:33.734Z,16.82
2023-03-17T11:44:33.724Z,16.95
2023-03-17T11:45:33.710Z,16.98
2023-03-17T11:46:33.700Z,16.72
2023-03-17T11:47:33.689Z,16.16
2023-03-17T11:48:33.695Z,16.09
2023-03-17T11:49:33.677Z,16.53
2023-03-17T11:50:34.280Z,16.86
2023-03-17T11:51:33.639Z,16.90
2023-03-17T11:52:33.629Z,16.82
2023-03-17T11:53:33.616Z,17.04
2023-03-17T11:54:33.607Z,17.32
2023-03-17T11:55:33.620Z,17.17
2023-03-17T11:56:33.584Z,16.79
2023-03-17T11:57:33.605Z,16.33
2023-03-17T11:58:33.572Z,15.96
2023-03-17T11:59:33.548Z,16.13
2023-03-17T12:00:34.419Z,16.27
2023-03-17T12:01:33.522Z,16.50
2023-03-17T12:02:33.523Z,16.54
2023-03-17T12:03:33.575Z,16.63
2023-03-17T12:04:33.522Z,16.58
2023-03-17T12:05:33.477Z,16.57
2023-03-17T12:06:33.473Z,16.54
2023-03-17T12:07:33.469Z,16.60
2023-03-17T12:08:33.440Z,16.79
2023-03-17T12:09:33.430Z,16.95
2023-03-17T12:10:33.576Z,16.64
2023-03-17T12:11:33.441Z,16.72
2023-03-17T12:12:33.400Z,16.57
2023-03-17T12:13:33.395Z,16.72
2023-03-17T12:14:33.378Z,16.53
2023-03-17T12:15:33.400Z,16.54
2023-03-17T12:16:33.351Z,16.42
2023-03-17T12:17:33.335Z,15.81
2023-03-17T12:18:33.329Z,15.87
2023-03-17T12:19:33.319Z,16.16
2023-03-17T12:20:33.780Z,16.14
2023-03-17T12:21:33.290Z,16.25
2023-03-17T12:22:33.281Z,16.43
2023-03-17T12:23:33.275Z,16.56
2023-03-17T12:24:33.268Z,16.78
2023-03-17T12:25:33.256Z,16.90
2023-03-17T12:26:33.243Z,16.79
2023-03-17T12:27:33.245Z,16.95
2023-03-17T12:28:33.212Z,17.02
2023-03-17T12:29:33.228Z,17.02
2023-03-17T12:30:33.536Z,16.91
2023-03-17T12:31:33.237Z,16.90
2023-03-17T12:32:33.278Z,16.79
2023-03-17T12:33:33.153Z,16.83
2023-03-17T12:34:33.152Z,16.56
2023-03-17T12:35:33.628Z,16.42
2023-03-17T12:36:33.126Z,16.33
2023-03-17T12:37:33.108Z,16.06
2023-03-17T12:38:33.102Z,15.90
2023-03-17T12:39:33.091Z,15.69
2023-03-17T12:40:33.232Z,15.72
2023-03-17T12:41:33.063Z,15.98
2023-03-17T12:42:33.051Z,16.35
2023-03-17T12:43:33.064Z,16.78
2023-03-17T12:44:33.026Z,17.12
2023-03-17T12:45:33.304Z,17.27
2023-03-17T12:46:33.072Z,17.46
2023-03-17T12:47:33.019Z,17.43
2023-03-17T12:48:32.987Z,17.37
2023-03-17T12:49:32.968Z,17.38
2023-03-17T12:50:32.967Z,17.16
2023-03-17T12:51:32.960Z,17.22
2023-03-17T12:52:32.940Z,17.04
2023-03-17T12:53:32.924Z,17.13
2023-03-17T12:54:32.917Z,17.34
2023-03-17T12:55:33.253Z,17.49
2023-03-17T12:56:32.890Z,17.65
2023-03-17T12:57:32.877Z,17.72
2023-03-17T12:58:32.872Z,17.74
2023-03-17T12:59:32.880Z,17.74
2023-03-17T13:00:32.845Z,17.78
2023-03-17T13:01:32.927Z,17.87
2023-03-17T13:02:32.822Z,18.04
2023-03-17T13:03:32.862Z,17.78
2023-03-17T13:04:32.807Z,17.68
2023-03-17T13:05:33.404Z,17.77
2023-03-17T13:06:32.781Z,17.86
2023-03-17T13:07:32.771Z,18.01
2023-03-17T13:08:32.760Z,18.14